createdAt,value
2018-11-13T00:00:23.108Z,100.00
2018-11-13T00:02:53.082Z,100.00
2018-11-13T00:05:23.060Z,100.00
2018-11-13T00:07:52.438Z,100.00
2018-11-13T00:10:21.931Z,100.00
2018-11-13T00:12:51.479Z,100.00
2018-11-13T00:15:20.935Z,100.00
2018-11-13T00:17:50.254Z,100.00
2018-11-13T00:20:20.138Z,100.00
2018-11-13T00:22:49.672Z,100.00
2018-11-13T00:25:19.983Z,100.00
2018-11-13T00:27:49.444Z,100.00
2018-11-13T00:30:20.873Z,100.00
2018-11-13T00:32:50.645Z,100.00
2018-11-13T00:35:20.706Z,100.00
2018-11-13T00:37:50.499Z,100.00
2018-11-13T00:40:20.007Z,100.00
2018-11-13T00:42:49.866Z,100.00
2018-11-13T00:45:19.262Z,100.00
2018-11-13T00:47:48.549Z,100.00
2018-11-13T00:50:19.176Z,100.00
2018-11-13T00:52:48.799Z,100.00
2018-11-13T00:55:18.448Z,100.00
2018-11-13T00:57:48.742Z,100.00
2018-11-13T01:00:19.387Z,100.00
2018-11-13T01:02:49.039Z,100.00
2018-11-13T01:05:19.779Z,100.00
2018-11-13T01:07:50.034Z,100.00
2018-11-13T01:10:20.126Z,100.00
2018-11-13T01:12:49.901Z,100.00
2018-11-13T01:15:20.304Z,100.00
2018-11-13T01:17:50.018Z,100.00
2018-11-13T01:20:19.819Z,100.00
2018-11-13T01:22:49.220Z,100.00
2018-11-13T01:25:19.216Z,100.00
2018-11-13T01:27:48.648Z,100.00
2018-11-13T01:30:18.297Z,100.00
2018-11-13T01:32:47.766Z,100.00
2018-11-13T01:35:18.167Z,100.00
2018-11-13T01:37:47.865Z,100.00
2018-11-13T01:40:19.042Z,100.00
2018-11-13T01:42:48.567Z,100.00
2018-11-13T01:45:18.880Z,100.00
2018-11-13T01:47:48.892Z,100.00
2018-11-13T01:50:18.911Z,100.00
2018-11-13T01:52:48.409Z,100.00
2018-11-13T01:55:17.826Z,100.00
2018-11-13T01:57:47.191Z,100.00
2018-11-13T02:00:18.986Z,100.00
2018-11-13T02:02:49.454Z,100.00
2018-11-13T02:05:20.301Z,100.00
2018-11-13T02:07:49.779Z,100.00
2018-11-13T02:10:19.469Z,100.00
2018-11-13T02:12:49.305Z,100.00
2018-11-13T02:15:19.100Z,100.00
2018-11-13T02:17:48.593Z,100.00
2018-11-13T02:20:21.086Z,100.00
2018-11-13T02:22:50.590Z,100.00
2018-11-13T02:25:20.906Z,100.00
2018-11-13T02:27:50.586Z,100.00
2018-11-13T02:30:22.131Z,100.00
2018-11-13T02:32:52.009Z,100.00
2018-11-13T02:35:21.468Z,100.00
2018-11-13T02:37:50.739Z,100.00
2018-11-13T02:40:20.235Z,100.00
2018-11-13T02:42:49.789Z,100.00
2018-11-13T02:45:19.972Z,100.00
2018-11-13T02:47:49.384Z,100.00
2018-11-13T02:50:20.315Z,100.00
2018-11-13T02:52:49.722Z,100.00
2018-11-13T02:55:19.141Z,100.00
2018-11-13T02:57:48.575Z,100.00
2018-11-13T03:00:19.465Z,100.00
2018-11-13T03:02:49.507Z,100.00
2018-11-13T03:05:19.923Z,100.00
2018-11-13T03:07:49.254Z,100.00
2018-11-13T03:10:19.396Z,100.00
2018-11-13T03:12:48.865Z,100.00
2018-11-13T03:15:19.353Z,100.00
2018-11-13T03:17:48.921Z,100.00
2018-11-13T03:20:19.665Z,100.00
2018-11-13T03:22:49.532Z,100.00
2018-11-13T03:25:20.103Z,100.00
2018-11-13T03:27:49.628Z,100.00
2018-11-13T03:30:23.734Z,100.00
2018-11-13T03:32:53.417Z,100.00
2018-11-13T03:35:22.779Z,100.00
2018-11-13T03:37:52.281Z,100.00
2018-11-13T03:40:21.932Z,100.00
2018-11-13T03:42:51.671Z,100.00
2018-11-13T03:45:21.343Z,100.00
2018-11-13T03:47:50.824Z,100.00
2018-11-13T03:50:21.451Z,100.00
2018-11-13T03:52:50.839Z,100.00
2018-11-13T03:55:20.832Z,100.00
2018-11-13T03:57:50.809Z,100.00
2018-11-13T04:00:22.371Z,100.00
2018-11-13T04:02:51.795Z,100.00
2018-11-13T04:05:21.832Z,100.00
2018-11-13T04:07:54.845Z,100.00
2018-11-13T04:10:24.747Z,100.00
2018-11-13T04:12:54.287Z,100.00
2018-11-13T04:15:24.633Z,100.00
2018-11-13T04:17:54.289Z,100.00
2018-11-13T04:20:24.185Z,100.00
2018-11-13T04:22:53.579Z,100.00
2018-11-13T04:25:22.900Z,100.00
2018-11-13T04:27:52.366Z,99.94
2018-11-13T04:30:21.786Z,99.92
2018-11-13T04:32:51.142Z,99.39
2018-11-13T04:35:20.495Z,100.00
2018-11-13T04:37:49.843Z,100.00
2018-11-13T04:40:21.028Z,100.00
2018-11-13T04:42:51.691Z,100.00
2018-11-13T04:45:22.268Z,100.00
2018-11-13T04:47:51.771Z,100.00
2018-11-13T04:50:22.051Z,100.00
2018-11-13T04:52:51.549Z,100.00
2018-11-13T04:55:21.100Z,100.00
2018-11-13T04:57:50.890Z,100.00
2018-11-13T05:00:21.310Z,100.00
2018-11-13T05:02:50.965Z,100.00
2018-11-13T05:05:20.824Z,100.00
2018-11-13T05:07:52.262Z,100.00
2018-11-13T05:10:21.717Z,100.00
2018-11-13T05:12:51.407Z,100.00
2018-11-13T05:15:20.819Z,100.00
2018-11-13T05:17:50.285Z,100.00
2018-11-13T05:20:19.768Z,100.00
2018-11-13T05:22:49.343Z,100.00
2018-11-13T05:25:19.931Z,100.00
2018-11-13T05:27:49.551Z,100.00
2018-11-13T05:30:20.441Z,100.00
2018-11-13T05:32:49.813Z,100.00
2018-11-13T05:35:20.411Z,100.00
2018-11-13T05:37:49.883Z,100.00
2018-11-13T05:40:21.399Z,100.00
2018-11-13T05:42:50.787Z,100.00
2018-11-13T05:45:22.404Z,100.00
2018-11-13T05:47:51.881Z,100.00
2018-11-13T05:50:21.604Z,100.00
2018-11-13T05:52:52.284Z,100.00
2018-11-13T05:55:21.541Z,100.00
2018-11-13T05:57:51.049Z,100.00
2018-11-13T06:00:27.830Z,100.00
2018-11-13T06:02:57.304Z,100.00
2018-11-13T06:05:26.766Z,99.83
2018-11-13T06:07:56.097Z,99.59
2018-11-13T06:10:25.442Z,99.53
2018-11-13T06:12:54.839Z,99.49
2018-11-13T06:15:24.261Z,98.69
2018-11-13T06:17:53.678Z,97.64
2018-11-13T06:20:23.180Z,98.15
2018-11-13T06:22:52.517Z,97.40
2018-11-13T06:25:22.043Z,97.11
2018-11-13T06:27:51.539Z,96.42
2018-11-13T06:30:22.453Z,95.45
2018-11-13T06:32:52.196Z,95.62
2018-11-13T06:35:21.446Z,94.88
2018-11-13T06:37:50.823Z,93.76
2018-11-13T06:40:20.292Z,95.57
2018-11-13T06:42:49.670Z,93.82
2018-11-13T06:45:20.329Z,93.12
2018-11-13T06:47:50.114Z,94.72
2018-11-13T06:50:19.608Z,94.33
2018-11-13T06:52:49.837Z,97.15
2018-11-13T06:55:24.094Z,97.14
2018-11-13T06:57:53.405Z,98.11
2018-11-13T07:00:22.820Z,99.94
2018-11-13T07:02:52.650Z,99.03
2018-11-13T07:05:22.222Z,99.81
2018-11-13T07:07:51.735Z,100.00
2018-11-13T07:10:22.523Z,98.96
2018-11-13T07:12:52.562Z,98.37
2018-11-13T07:15:22.972Z,98.66
2018-11-13T07:17:54.590Z,99.11
2018-11-13T07:20:24.944Z,98.69
2018-11-13T07:22:54.569Z,98.19
2018-11-13T07:25:24.294Z,98.64
2018-11-13T07:27:53.757Z,97.64
2018-11-13T07:30:23.782Z,97.00
2018-11-13T07:32:53.344Z,97.75
2018-11-13T07:35:23.359Z,98.26
2018-11-13T07:37:57.719Z,96.27
2018-11-13T07:40:27.188Z,96.37
2018-11-13T07:42:56.781Z,96.05
2018-11-13T07:45:26.391Z,95.19
2018-11-13T07:47:55.920Z,93.42
2018-11-13T07:50:25.265Z,97.18
2018-11-13T07:52:54.580Z,96.71
2018-11-13T07:55:23.910Z,94.65
2018-11-13T07:57:53.068Z,92.70
2018-11-13T08:00:23.447Z,93.80
2018-11-13T08:02:54.250Z,94.76
2018-11-13T08:05:23.565Z,92.05
2018-11-13T08:07:52.971Z,92.71
2018-11-13T08:10:22.343Z,93.98
2018-11-13T08:12:52.013Z,93.37
2018-11-13T08:15:21.395Z,93.92
2018-11-13T08:17:50.805Z,92.92
2018-11-13T08:20:20.161Z,92.48
2018-11-13T08:22:49.599Z,93.28
2018-11-13T08:25:19.153Z,92.38
2018-11-13T08:27:48.581Z,93.71
2018-11-13T08:30:19.050Z,94.10
2018-11-13T08:32:48.807Z,92.82
2018-11-13T08:35:18.145Z,92.39
2018-11-13T08:37:47.550Z,92.65
2018-11-13T08:40:18.225Z,94.64
2018-11-13T08:42:48.161Z,93.70
2018-11-13T08:45:18.226Z,93.08
2018-11-13T08:47:47.451Z,92.59
2018-11-13T08:50:16.946Z,92.36
2018-11-13T08:52:47.575Z,92.61
2018-11-13T08:55:17.236Z,91.20
2018-11-13T08:57:46.666Z,90.88
2018-11-13T09:00:17.219Z,89.96
2018-11-13T09:02:47.113Z,91.68
2018-11-13T09:05:16.843Z,91.80
2018-11-13T09:07:46.291Z,92.97
2018-11-13T09:10:16.743Z,92.02
2018-11-13T09:12:46.529Z,91.37
2018-11-13T09:15:17.099Z,92.28
2018-11-13T09:17:46.479Z,92.68
2018-11-13T09:20:16.968Z,91.10
2018-11-13T09:22:46.490Z,91.06
2018-11-13T09:25:17.679Z,91.11
2018-11-13T09:27:47.083Z,92.78
2018-11-13T09:30:17.884Z,91.58
2018-11-13T09:32:47.685Z,92.17
2018-11-13T09:35:18.081Z,93.78
2018-11-13T09:37:47.390Z,93.73
2018-11-13T09:40:18.821Z,92.47
2018-11-13T09:42:49.511Z,93.84
2018-11-13T09:45:19.115Z,92.60
2018-11-13T09:47:48.625Z,92.09
2018-11-13T09:50:19.308Z,93.23
2018-11-13T09:52:49.810Z,92.88
2018-11-13T09:55:21.206Z,92.82
2018-11-13T09:57:50.716Z,93.43
2018-11-13T10:00:23.398Z,92.00
2018-11-13T10:02:58.150Z,95.44
2018-11-13T10:05:27.197Z,93.57
2018-11-13T10:07:56.760Z,93.06
2018-11-13T10:10:26.798Z,95.65
2018-11-13T10:12:56.209Z,94.93
2018-11-13T10:15:26.844Z,92.75
2018-11-13T10:17:56.555Z,94.96
2018-11-13T10:20:25.993Z,94.02
2018-11-13T10:22:56.603Z,92.71
2018-11-13T10:25:26.216Z,91.93
2018-11-13T10:27:55.514Z,92.78
2018-11-13T10:30:25.324Z,92.58
2018-11-13T10:32:55.113Z,93.54
2018-11-13T10:35:25.525Z,92.04
2018-11-13T10:37:54.996Z,93.42
2018-11-13T10:40:24.609Z,93.94
2018-11-13T10:42:54.269Z,95.51
2018-11-13T10:45:26.801Z,95.88
2018-11-13T10:47:56.140Z,96.33
2018-11-13T10:50:26.629Z,93.76
2018-11-13T10:52:56.297Z,93.34
2018-11-13T10:55:25.803Z,93.30
2018-11-13T10:57:55.225Z,94.96
2018-11-13T11:00:28.456Z,94.68
2018-11-13T11:03:03.221Z,91.90
2018-11-13T11:05:32.640Z,93.75
2018-11-13T11:08:02.180Z,93.02
2018-11-13T11:10:31.688Z,94.32
2018-11-13T11:13:01.271Z,94.39
2018-11-13T11:15:30.574Z,94.48
2018-11-13T11:17:59.935Z,95.28
2018-11-13T11:20:29.359Z,92.83
2018-11-13T11:22:58.837Z,92.75
2018-11-13T11:25:28.384Z,93.86
2018-11-13T11:27:57.763Z,94.31
2018-11-13T11:30:27.064Z,94.32
2018-11-13T11:32:56.295Z,95.04
2018-11-13T11:35:25.558Z,94.40
2018-11-13T11:37:54.877Z,93.84
2018-11-13T11:40:24.527Z,96.02
2018-11-13T11:42:54.058Z,95.19
2018-11-13T11:45:23.541Z,93.99
2018-11-13T11:47:52.966Z,95.28
2018-11-13T11:50:22.317Z,95.74
2018-11-13T11:52:51.941Z,95.35
2018-11-13T11:55:21.308Z,93.14
2018-11-13T11:57:50.617Z,93.33
2018-11-13T12:00:24.845Z,93.63
2018-11-13T12:02:54.128Z,93.45
2018-11-13T12:05:23.428Z,93.96
2018-11-13T12:07:52.691Z,91.28
2018-11-13T12:10:22.158Z,93.60
2018-11-13T12:12:51.683Z,92.04
2018-11-13T12:15:21.171Z,93.22
2018-11-13T12:17:50.886Z,93.13
2018-11-13T12:20:20.193Z,95.09
2018-11-13T12:22:49.591Z,92.17
2018-11-13T12:25:20.287Z,95.41
2018-11-13T12:27:50.077Z,92.94
2018-11-13T12:30:20.757Z,93.50
2018-11-13T12:32:51.033Z,94.01
2018-11-13T12:35:21.164Z,94.77
2018-11-13T12:37:50.747Z,95.19
2018-11-13T12:40:21.452Z,94.98
2018-11-13T12:42:51.236Z,94.43
2018-11-13T12:45:20.936Z,94.80
2018-11-13T12:47:50.145Z,95.95
2018-11-13T12:50:20.289Z,95.77
2018-11-13T12:52:49.825Z,93.66
2018-11-13T12:55:25.300Z,95.68
2018-11-13T12:57:54.666Z,96.58
2018-11-13T13:00:25.989Z,95.24
2018-11-13T13:02:55.342Z,99.19
2018-11-13T13:05:24.704Z,96.36
2018-11-13T13:07:54.072Z,97.55
2018-11-13T13:10:23.424Z,97.75
2018-11-13T13:12:52.706Z,96.84
2018-11-13T13:15:22.104Z,97.56
2018-11-13T13:17:51.649Z,100.00
2018-11-13T13:20:23.046Z,99.48
2018-11-13T13:22:52.720Z,99.72
2018-11-13T13:25:23.021Z,99.06
2018-11-13T13:27:52.957Z,100.00
2018-11-13T13:30:25.403Z,99.14
2018-11-13T13:32:55.028Z,98.38
2018-11-13T13:35:42.090Z,98.46
2018-11-13T13:38:11.904Z,96.87
2018-11-13T13:40:42.047Z,99.57
2018-11-13T13:43:12.309Z,100.00
2018-11-13T13:45:42.490Z,100.00
2018-11-13T13:48:11.972Z,100.00
2018-11-13T13:50:41.240Z,100.00
2018-11-13T13:53:11.484Z,100.00
2018-11-13T13:55:41.280Z,100.00
2018-11-13T13:58:10.961Z,100.00
2018-11-13T14:00:40.588Z,100.00
2018-11-13T14:03:10.864Z,100.00
2018-11-13T14:05:40.552Z,100.00
2018-11-13T14:08:10.635Z,100.00
2018-11-13T14:10:40.203Z,100.00
2018-11-13T14:13:09.607Z,100.00
2018-11-13T14:15:39.000Z,100.00
2018-11-13T14:18:08.368Z,100.00
2018-11-13T14:20:37.866Z,100.00
2018-11-13T14:23:07.328Z,100.00
2018-11-13T14:25:36.818Z,100.00
2018-11-13T14:28:06.324Z,100.00
2018-11-13T14:30:36.605Z,100.00
2018-11-13T14:33:08.197Z,100.00
2018-11-13T14:35:37.817Z,100.00
2018-11-13T14:38:07.447Z,100.00
2018-11-13T14:40:45.269Z,100.00
2018-11-13T14:43:14.971Z,100.00
2018-11-13T14:45:44.543Z,100.00
2018-11-13T14:48:14.049Z,100.00
2018-11-13T14:50:43.817Z,100.00
2018-11-13T14:53:13.662Z,100.00
2018-11-13T14:55:44.209Z,100.00
2018-11-13T14:58:14.699Z,100.00
2018-11-13T15:00:44.497Z,100.00
2018-11-13T15:03:16.092Z,100.00
2018-11-13T15:05:45.334Z,100.00
2018-11-13T15:08:14.816Z,100.00
2018-11-13T15:10:47.877Z,100.00
2018-11-13T15:13:17.454Z,100.00
2018-11-13T15:15:46.704Z,100.00
2018-11-13T15:18:16.342Z,100.00
2018-11-13T15:20:46.391Z,100.00
2018-11-13T15:23:15.909Z,100.00
2018-11-13T15:25:45.382Z,100.00
2018-11-13T15:28:15.056Z,100.00
2018-11-13T15:30:46.223Z,100.00
2018-11-13T15:33:20.372Z,100.00
2018-11-13T15:35:49.767Z,100.00
2018-11-13T15:38:19.222Z,100.00
2018-11-13T15:40:48.619Z,100.00
2018-11-13T15:43:18.360Z,100.00
2018-11-13T15:45:47.633Z,100.00
2018-11-13T15:48:17.448Z,100.00
2018-11-13T15:50:46.903Z,100.00
2018-11-13T15:53:16.252Z,100.00
2018-11-13T15:55:45.609Z,100.00
2018-11-13T15:58:15.067Z,100.00
2018-11-13T16:00:44.404Z,100.00
2018-11-13T16:03:21.968Z,100.00
2018-11-13T16:05:52.662Z,100.00
2018-11-13T16:08:22.129Z,97.88
2018-11-13T16:10:51.378Z,99.58
2018-11-13T16:13:20.714Z,99.06
2018-11-13T16:15:50.133Z,100.00
2018-11-13T16:18:21.061Z,98.35
2018-11-13T16:20:50.462Z,98.12
2018-11-13T16:23:19.954Z,100.00
2018-11-13T16:25:49.262Z,98.82
2018-11-13T16:28:18.708Z,99.14
2018-11-13T16:30:48.321Z,99.22
2018-11-13T16:33:17.610Z,98.66
2018-11-13T16:35:46.846Z,100.00
2018-11-13T16:38:16.477Z,98.68
2018-11-13T16:40:45.830Z,100.00
2018-11-13T16:43:15.174Z,99.02
2018-11-13T16:45:44.541Z,97.72
2018-11-13T16:48:14.395Z,98.26
2018-11-13T16:50:43.801Z,98.17
2018-11-13T16:53:13.348Z,99.86
2018-11-13T16:55:47.631Z,98.80
2018-11-13T16:58:17.433Z,99.45
2018-11-13T17:00:46.994Z,97.01
2018-11-13T17:03:16.320Z,98.36
2018-11-13T17:05:45.911Z,99.76
2018-11-13T17:08:15.350Z,99.60
2018-11-13T17:10:45.115Z,97.96
2018-11-13T17:13:14.452Z,100.00
2018-11-13T17:15:43.777Z,100.00
2018-11-13T17:18:13.727Z,100.00
2018-11-13T17:20:42.712Z,98.16
2018-11-13T17:23:12.222Z,98.37
2018-11-13T17:25:41.724Z,100.00
2018-11-13T17:28:11.185Z,100.00
2018-11-13T17:30:40.491Z,99.35
2018-11-13T17:33:10.718Z,99.59
2018-11-13T17:35:40.094Z,99.89
2018-11-13T17:38:09.543Z,100.00
2018-11-13T17:40:39.323Z,97.79
2018-11-13T17:43:09.047Z,100.00
2018-11-13T17:45:39.741Z,100.00
2018-11-13T17:48:09.942Z,100.00
2018-11-13T17:50:40.703Z,98.77
2018-11-13T17:53:10.458Z,98.76
2018-11-13T17:55:40.156Z,99.35
2018-11-13T17:58:11.221Z,99.46
2018-11-13T18:00:43.000Z,98.11
2018-11-13T18:03:13.377Z,99.99
2018-11-13T18:05:43.311Z,99.68
2018-11-13T18:08:13.074Z,97.90
2018-11-13T18:10:43.334Z,100.00
2018-11-13T18:13:12.621Z,97.42
2018-11-13T18:15:41.974Z,97.43
2018-11-13T18:18:11.611Z,97.45
2018-11-13T18:20:41.786Z,98.62
2018-11-13T18:23:11.422Z,98.47
2018-11-13T18:25:40.831Z,98.38
2018-11-13T18:28:10.182Z,96.50
2018-11-13T18:30:40.057Z,96.37
2018-11-13T18:33:09.770Z,95.55
2018-11-13T18:35:39.869Z,97.21
2018-11-13T18:38:10.664Z,99.32
2018-11-13T18:40:40.252Z,98.88
2018-11-13T18:43:09.627Z,97.81
2018-11-13T18:45:40.428Z,99.09
2018-11-13T18:48:09.837Z,97.75
2018-11-13T18:50:41.001Z,97.76
2018-11-13T18:53:13.997Z,97.49
2018-11-13T18:55:43.904Z,97.48
2018-11-13T18:58:13.323Z,95.90
2018-11-13T19:00:42.968Z,98.46
2018-11-13T19:03:13.338Z,98.75
2018-11-13T19:05:43.229Z,99.45
2018-11-13T19:08:12.705Z,100.00
2018-11-13T19:10:43.443Z,99.96
2018-11-13T19:13:14.262Z,100.00
2018-11-13T19:15:46.034Z,100.00
2018-11-13T19:18:15.754Z,100.00
2018-11-13T19:20:45.293Z,100.00
2018-11-13T19:23:14.716Z,100.00
2018-11-13T19:25:43.994Z,100.00
2018-11-13T19:28:13.380Z,100.00
2018-11-13T19:30:42.784Z,100.00
2018-11-13T19:33:12.378Z,100.00
2018-11-13T19:35:42.307Z,100.00
2018-11-13T19:38:11.619Z,100.00
2018-11-13T19:40:41.217Z,100.00
2018-11-13T19:43:11.639Z,100.00
2018-11-13T19:45:41.135Z,100.00
2018-11-13T19:48:10.540Z,100.00
2018-11-13T19:50:40.134Z,100.00
2018-11-13T19:53:09.269Z,100.00
2018-11-13T19:55:38.702Z,100.00
2018-11-13T19:58:07.989Z,100.00
2018-11-13T20:00:38.566Z,100.00
2018-11-13T20:03:09.125Z,100.00
2018-11-13T20:05:38.670Z,100.00
2018-11-13T20:08:08.706Z,99.83
2018-11-13T20:10:39.210Z,99.70
2018-11-13T20:13:09.362Z,100.00
2018-11-13T20:15:39.517Z,100.00
2018-11-13T20:18:09.015Z,100.00
2018-11-13T20:20:38.420Z,100.00
2018-11-13T20:23:09.040Z,100.00
2018-11-13T20:25:38.496Z,100.00
2018-11-13T20:28:07.744Z,100.00
2018-11-13T20:30:38.705Z,100.00
2018-11-13T20:33:08.218Z,100.00
2018-11-13T20:35:37.689Z,100.00
2018-11-13T20:38:07.856Z,100.00
2018-11-13T20:40:37.806Z,100.00
2018-11-13T20:43:09.137Z,100.00
2018-11-13T20:45:39.031Z,100.00
2018-11-13T20:48:08.460Z,100.00
2018-11-13T20:50:37.854Z,100.00
2018-11-13T20:53:07.336Z,100.00
2018-11-13T20:55:36.748Z,100.00
2018-11-13T20:58:06.435Z,100.00
2018-11-13T21:00:36.751Z,100.00
2018-11-13T21:03:06.571Z,100.00
2018-11-13T21:05:35.968Z,100.00
2018-11-13T21:08:05.068Z,100.00
2018-11-13T21:10:37.000Z,100.00
2018-11-13T21:13:06.477Z,100.00
2018-11-13T21:15:35.724Z,99.70
2018-11-13T21:18:05.025Z,100.00
2018-11-13T21:20:34.459Z,100.00
2018-11-13T21:23:04.119Z,100.00
2018-11-13T21:25:33.593Z,100.00
2018-11-13T21:28:03.427Z,100.00
2018-11-13T21:30:32.916Z,100.00
2018-11-13T21:33:02.361Z,100.00
2018-11-13T21:35:31.667Z,100.00
2018-11-13T21:38:01.038Z,100.00
2018-11-13T21:40:30.378Z,100.00
2018-11-13T21:42:59.793Z,100.00
2018-11-13T21:45:29.703Z,100.00
2018-11-13T21:47:58.998Z,100.00
2018-11-13T21:50:29.218Z,100.00
2018-11-13T21:52:58.623Z,100.00
2018-11-13T21:55:28.863Z,100.00
2018-11-13T21:57:58.319Z,100.00
2018-11-13T22:00:30.343Z,100.00
2018-11-13T22:03:04.745Z,100.00
2018-11-13T22:05:35.008Z,100.00
2018-11-13T22:08:04.461Z,100.00
2018-11-13T22:10:33.765Z,100.00
2018-11-13T22:13:03.196Z,100.00
2018-11-13T22:15:32.490Z,100.00
2018-11-13T22:18:02.348Z,100.00
2018-11-13T22:20:31.280Z,100.00
2018-11-13T22:23:01.291Z,100.00
2018-11-13T22:25:30.583Z,100.00
2018-11-13T22:28:00.176Z,100.00
2018-11-13T22:30:30.946Z,100.00
2018-11-13T22:33:00.461Z,100.00
2018-11-13T22:35:30.140Z,100.00
2018-11-13T22:37:59.683Z,100.00
2018-11-13T22:40:29.623Z,100.00
2018-11-13T22:42:59.821Z,100.00
2018-11-13T22:45:30.047Z,100.00
2018-11-13T22:47:59.681Z,100.00
2018-11-13T22:50:33.137Z,100.00
2018-11-13T22:53:02.255Z,100.00
2018-11-13T22:55:31.893Z,100.00
2018-11-13T22:58:02.208Z,100.00
2018-11-13T23:00:42.944Z,100.00
2018-11-13T23:03:14.531Z,100.00
2018-11-13T23:05:44.735Z,100.00
2018-11-13T23:08:15.729Z,100.00
2018-11-13T23:10:45.065Z,100.00
2018-11-13T23:13:14.443Z,100.00
2018-11-13T23:15:43.672Z,100.00
2018-11-13T23:18:13.041Z,100.00
2018-11-13T23:20:42.581Z,100.00
2018-11-13T23:23:11.988Z,100.00
2018-11-13T23:25:41.476Z,100.00
2018-11-13T23:28:10.861Z,100.00
2018-11-13T23:30:40.315Z,100.00
2018-11-13T23:33:09.585Z,100.00
2018-11-13T23:35:38.959Z,100.00
2018-11-13T23:38:08.278Z,100.00
2018-11-13T23:40:37.635Z,100.00
2018-11-13T23:43:07.067Z,100.00
2018-11-13T23:45:36.391Z,100.00
2018-11-13T23:48:05.828Z,100.00
2018-11-13T23:50:35.239Z,100.00
2018-11-13T23:53:04.926Z,100.00
2018-11-13T23:55:34.528Z,100.00
2018-11-13T23:58:04.328Z,100.00
